Allison, Illinois
Current Conditions -  °F | °C
As of 9:53 PM on Saturday 22 Nov 2014 (Local Time) from KLWV Reporting Station
Overcast Overcast  
Wind Chill: 11°   Ceiling: 6000
Heat Index: 11°   Visibility: 10mi
Dew Point:   Wind: 8mph
Humidity: 68%   Direction: 170°S
Pressure: 29.99"   Gusts: NA
Location:  38.7501°N, 87.6141°W
Report Text: KLWV 230353Z AUTO 17007KT 10SM FEW043 OVC060 11/05 A2999 RMK AO2 SLP155 T01060050
Loading
Personal Weather Stations






























Interactive Weather Map New forecast layout! Learn more

10-Day Weather Forecast

Advertisements
Track Severe Weather on mobile